Time;durP1;ratioP1;P1;durP2;ratioP2;P2;SDS_P1;SDS_P2;PMS_P1;PMS_P2;Temp;Humidity;BMP_temperature;BMP_pressure;BME280_temperature;BME280_humidity;BME280_pressure;Samples;Min_cycle;Max_cycle;Signal;HPM_P1;HPM_P2
2021/06/27 00:00:40;;;;;;;11.45;6.05;;;;;;;22.23;56.84;100155.78;5094148;28;20551;-77
2021/06/27 00:03:09;;;;;;;10.38;6.00;;;;;;;22.22;56.82;100156.81;5094499;28;20051;-72
2021/06/27 00:05:39;;;;;;;9.90;5.95;;;;;;;22.13;57.70;100161.38;5094219;28;20085;-73
2021/06/27 00:08:11;;;;;;;9.88;6.20;;;;;;;22.10;57.34;100164.44;5094427;28;20071;-73
2021/06/27 00:10:43;;;;;;;8.93;5.47;;;;;;;22.25;57.09;100159.16;5094314;28;20048;-73
2021/06/27 00:13:14;;;;;;;8.80;6.13;;;;;;;22.36;57.14;100166.13;5094359;28;20275;-75
2021/06/27 00:15:45;;;;;;;9.60;6.32;;;;;;;22.35;57.30;100167.16;5093937;28;20036;-76
2021/06/27 00:18:16;;;;;;;8.30;6.05;;;;;;;22.29;57.29;100165.94;5094367;28;20174;-76
2021/06/27 00:20:47;;;;;;;8.35;6.25;;;;;;;22.31;57.56;100168.53;5093980;28;20052;-76
2021/06/27 00:23:17;;;;;;;10.38;6.55;;;;;;;22.38;57.27;100169.53;5094430;28;20046;-76
2021/06/27 00:25:48;;;;;;;9.00;6.22;;;;;;;22.24;57.71;100171.06;5093769;28;20047;-76
2021/06/27 00:28:17;;;;;;;9.98;6.28;;;;;;;22.13;58.25;100183.13;5094015;28;20122;-76
2021/06/27 00:30:45;;;;;;;8.35;6.38;;;;;;;21.99;58.28;100183.72;5093728;28;20052;-77
2021/06/27 00:33:15;;;;;;;9.95;6.68;;;;;;;21.94;58.43;100188.81;5094024;28;20553;-76
2021/06/27 00:35:43;;;;;;;10.68;6.85;;;;;;;21.95;58.12;100185.09;5093431;28;20101;-77
2021/06/27 00:38:12;;;;;;;9.95;6.38;;;;;;;22.05;58.23;100188.50;5093946;28;20097;-76
2021/06/27 00:40:40;;;;;;;7.88;6.15;;;;;;;22.05;57.66;100188.50;5093682;28;20081;-78
2021/06/27 00:43:11;;;;;;;8.43;5.80;;;;;;;22.03;57.77;100195.97;5093683;28;20097;-77
2021/06/27 00:45:40;;;;;;;7.80;5.63;;;;;;;22.03;56.68;100198.69;5093458;28;20044;-77
2021/06/27 00:48:10;;;;;;;7.35;5.45;;;;;;;22.02;57.35;100199.72;5094042;28;20040;-77
2021/06/27 00:50:40;;;;;;;8.50;6.18;;;;;;;21.91;57.77;100195.44;5093550;28;20051;-80
2021/06/27 00:53:09;;;;;;;9.57;5.78;;;;;;;21.94;57.90;100197.81;5093605;28;20044;-76
2021/06/27 00:55:39;;;;;;;8.65;5.80;;;;;;;22.04;57.46;100204.97;5093332;28;20117;-77
2021/06/27 00:58:07;;;;;;;8.95;6.05;;;;;;;22.03;57.87;100192.41;5093475;28;20090;-76
2021/06/27 01:00:40;;;;;;;10.32;6.57;;;;;;;21.94;58.28;100196.97;5093352;28;20135;-76
2021/06/27 01:03:09;;;;;;;10.67;6.40;;;;;;;21.82;58.27;100204.59;5093731;28;20048;-76
2021/06/27 01:05:42;;;;;;;8.10;5.70;;;;;;;21.73;57.92;100200.16;5093608;28;20467;-73
2021/06/27 01:08:12;;;;;;;8.43;5.35;;;;;;;21.74;58.03;100207.28;5093154;28;20487;-74
2021/06/27 01:10:41;;;;;;;10.75;5.68;;;;;;;21.90;57.65;100214.59;5093273;28;20082;-74
2021/06/27 01:13:10;;;;;;;8.85;5.25;;;;;;;21.88;57.50;100214.75;5093295;28;20071;-76
2021/06/27 01:15:39;;;;;;;9.05;5.55;;;;;;;21.89;57.52;100219.19;5093178;28;20414;-76
2021/06/27 01:18:10;;;;;;;6.93;5.35;;;;;;;21.77;57.68;100214.22;5093155;28;20047;-75
2021/06/27 01:20:40;;;;;;;8.45;5.10;;;;;;;21.67;57.82;100215.22;5092949;28;20406;-75
2021/06/27 01:23:13;;;;;;;9.05;5.80;;;;;;;21.58;58.25;100210.78;5092921;28;20501;-75
2021/06/27 01:25:45;;;;;;;7.28;5.30;;;;;;;21.56;58.12;100212.81;5093146;28;20040;-75
2021/06/27 01:28:14;;;;;;;6.85;5.00;;;;;;;21.60;58.20;100207.88;5093174;28;20093;-73
2021/06/27 01:30:43;;;;;;;6.78;5.18;;;;;;;21.62;58.20;100205.88;5092851;28;20044;-77
2021/06/27 01:33:14;;;;;;;8.32;4.90;;;;;;;21.63;57.79;100208.44;5092940;28;20073;-76
2021/06/27 01:35:43;;;;;;;7.85;5.20;;;;;;;21.56;57.76;100207.38;5092898;28;20040;-77
2021/06/27 01:38:14;;;;;;;7.05;5.45;;;;;;;21.50;58.24;100202.59;5093239;28;20497;-81
2021/06/27 01:40:43;;;;;;;7.35;5.32;;;;;;;21.46;58.61;100203.94;5092963;28;20083;-79
2021/06/27 01:43:14;;;;;;;8.13;5.03;;;;;;;21.47;58.42;100210.22;5092909;28;20052;-78
2021/06/27 01:45:45;;;;;;;9.02;5.13;;;;;;;21.43;58.41;100207.84;5092715;28;20390;-76
2021/06/27 01:48:14;;;;;;;8.18;4.90;;;;;;;21.36;58.99;100214.94;5093280;28;20048;-75
2021/06/27 01:50:46;;;;;;;8.02;5.10;;;;;;;21.33;58.91;100217.13;5092560;28;20054;-76
2021/06/27 01:53:19;;;;;;;7.20;5.05;;;;;;;21.33;58.84;100222.56;5093043;28;20036;-74
2021/06/27 01:55:47;;;;;;;6.85;4.70;;;;;;;21.29;58.94;100221.16;5092495;28;20044;-74
2021/06/27 01:58:15;;;;;;;7.15;4.93;;;;;;;21.29;59.10;100226.59;5092707;28;20047;-74
2021/06/27 02:00:44;;;;;;;8.02;5.03;;;;;;;21.26;59.61;100229.59;5092264;28;20050;-73
2021/06/27 02:03:17;;;;;;;7.03;4.63;;;;;;;21.26;58.97;100232.31;5093017;28;20044;-74
2021/06/27 02:05:46;;;;;;;7.05;4.68;;;;;;;21.17;59.20;100228.69;5092297;28;20376;-73
2021/06/27 02:08:16;;;;;;;5.95;4.47;;;;;;;21.22;59.12;100228.22;5092609;28;20048;-72
2021/06/27 02:10:45;;;;;;;7.85;4.65;;;;;;;21.25;59.35;100223.31;5091999;28;20063;-73
2021/06/27 02:13:15;;;;;;;7.85;4.85;;;;;;;21.29;59.72;100223.88;5074820;28;20055;-78
2021/06/27 02:15:44;;;;;;;6.57;4.78;;;;;;;21.27;59.35;100221.31;5093103;28;20040;-78
2021/06/27 02:18:28;;;;;;;8.02;4.88;;;;;;;21.49;58.40;100221.75;5092582;28;20040;-81
2021/06/27 02:20:58;;;;;;;7.90;4.85;;;;;;;21.46;58.53;100228.38;5094536;28;20051;-81
2021/06/27 02:23:28;;;;;;;5.82;4.65;;;;;;;21.39;59.04;100219.19;5096592;28;20478;-81
2021/06/27 02:26:00;;;;;;;8.65;4.38;;;;;;;21.46;58.23;100220.22;5096180;28;20036;-77
2021/06/27 02:28:31;;;;;;;6.03;4.45;;;;;;;21.73;57.89;100219.16;5096240;28;20048;-77
2021/06/27 02:31:02;;;;;;;8.77;4.38;;;;;;;21.88;57.03;100214.75;5096068;28;20144;-77
2021/06/27 02:33:30;;;;;;;12.18;4.68;;;;;;;21.91;56.46;100211.75;5096201;28;20097;-78
2021/06/27 02:36:01;;;;;;;5.32;4.13;;;;;;;21.79;56.73;100212.19;5095961;28;20055;-77
2021/06/27 02:38:31;;;;;;;6.78;4.97;;;;;;;21.71;57.01;100211.19;5096194;28;20044;-81
2021/06/27 02:40:59;;;;;;;5.75;4.50;;;;;;;21.74;56.96;100214.56;5095762;28;20086;-79
2021/06/27 02:43:28;;;;;;;7.18;4.50;;;;;;;21.79;56.73;100214.91;5096055;28;20051;-79
2021/06/27 02:45:58;;;;;;;7.13;4.35;;;;;;;21.71;57.40;100218.44;5095901;28;20127;-78
2021/06/27 02:48:27;;;;;;;6.60;4.88;;;;;;;21.53;57.73;100224.00;5096260;28;20466;-79
2021/06/27 02:50:55;;;;;;;5.70;4.35;;;;;;;21.46;58.16;100225.66;5095955;28;20040;-78
2021/06/27 02:53:24;;;;;;;6.32;4.57;;;;;;;21.30;58.96;100239.13;5096013;28;20048;-77
2021/06/27 02:56:07;;;;;;;7.47;4.35;;;;;;;21.28;59.46;100230.31;5095657;28;20131;-79
2021/06/27 02:58:37;;;;;;;;;;;;;;;21.49;59.01;100228.03;5096512;28;20450;-76
2021/06/27 03:01:08;;;;;;;11.13;4.80;;;;;;;21.45;59.10;100225.81;5095467;28;19969;-76
2021/06/27 03:03:38;;;;;;;8.88;5.43;;;;;;;21.45;59.47;100226.69;5077980;28;20139;-75
2021/06/27 03:06:09;;;;;;;8.48;5.80;;;;;;;21.56;59.24;100222.81;5095404;28;20044;-74
2021/06/27 03:08:38;;;;;;;7.80;5.47;;;;;;;21.65;58.79;100227.25;5095270;28;20081;-73
2021/06/27 03:11:08;;;;;;;8.30;5.78;;;;;;;21.54;59.39;100219.41;5095066;28;20048;-73
2021/06/27 03:13:37;;;;;;;7.75;5.60;;;;;;;21.59;59.28;100219.75;5095549;28;20043;-74
2021/06/27 03:16:09;;;;;;;7.57;6.05;;;;;;;21.63;59.06;100218.44;5095292;28;20044;-77
2021/06/27 03:18:38;;;;;;;9.00;5.75;;;;;;;21.65;59.25;100222.69;5077264;28;20494;-75
2021/06/27 03:21:07;;;;;;;7.22;5.60;;;;;;;21.71;58.60;100224.75;5094826;28;20048;-75
2021/06/27 03:23:36;;;;;;;8.45;5.65;;;;;;;21.81;58.52;100231.88;5095421;28;20502;-78
2021/06/27 03:26:04;;;;;;;10.95;6.35;;;;;;;21.66;59.41;100224.38;5094736;28;20077;-77
2021/06/27 03:28:36;;;;;;;10.85;5.70;;;;;;;21.70;59.50;100220.31;5095238;28;20047;-75
2021/06/27 03:31:05;;;;;;;8.13;5.30;;;;;;;22.10;57.13;100223.31;5094279;28;20052;-76
2021/06/27 03:33:34;;;;;;;7.55;5.38;;;;;;;22.47;56.40;100218.25;5094507;28;20040;-78
2021/06/27 03:36:05;;;;;;;7.38;5.43;;;;;;;22.95;55.00;100226.59;5076998;28;20055;-78
2021/06/27 03:38:39;;;;;;;8.80;5.75;;;;;;;23.03;54.71;100224.69;5094663;28;20551;-74
2021/06/27 03:41:07;;;;;;;6.93;5.03;;;;;;;23.43;53.76;100215.56;5094457;28;20072;-74
2021/06/27 03:43:37;;;;;;;8.55;5.82;;;;;;;23.06;54.16;100212.63;5094730;28;20059;-73
2021/06/27 03:46:05;;;;;;;7.28;5.60;;;;;;;23.72;52.72;100216.81;5094476;28;20048;-73
2021/06/27 03:48:33;;;;;;;7.18;4.82;;;;;;;23.74;52.45;100216.66;5094838;28;20044;-72
2021/06/27 03:51:04;;;;;;;7.57;5.20;;;;;;;23.39;52.56;100214.22;5094543;28;20052;-73
2021/06/27 03:53:35;;;;;;;6.70;5.03;;;;;;;23.04;54.25;100217.38;5094890;28;20421;-73
2021/06/27 03:56:03;;;;;;;6.78;4.85;;;;;;;23.00;53.95;100213.31;5094419;28;20043;-73
2021/06/27 03:58:33;;;;;;;8.15;4.57;;;;;;;22.99;54.58;100208.91;5094638;28;20051;-75
2021/06/27 04:01:04;;;;;;;7.60;4.80;;;;;;;23.19;53.72;100212.09;5093893;28;20074;-73
2021/06/27 04:03:32;;;;;;;7.07;4.80;;;;;;;23.61;51.89;100211.78;5094773;28;20448;-71
2021/06/27 04:06:03;;;;;;;6.88;4.88;;;;;;;23.69;51.46;100223.47;5093992;28;20048;-72
2021/06/27 04:08:32;;;;;;;5.90;3.88;;;;;;;24.83;48.35;100225.41;5094203;28;20044;-72
2021/06/27 04:11:00;;;;;;;6.32;4.03;;;;;;;25.18;47.28;100224.91;5094077;28;20051;-72
2021/06/27 04:13:30;;;;;;;6.95;4.00;;;;;;;25.16;46.97;100227.00;5094280;28;20043;-73
2021/06/27 04:16:00;;;;;;;6.13;4.10;;;;;;;26.72;43.52;100227.41;5093900;28;20093;-75
2021/06/27 04:18:30;;;;;;;7.10;4.13;;;;;;;27.30;42.41;100223.44;5094102;28;20358;-74
2021/06/27 04:20:59;;;;;;;6.13;4.35;;;;;;;27.67;41.35;100226.81;5093932;28;20460;-73
2021/06/27 04:23:30;;;;;;;6.13;3.70;;;;;;;28.15;39.66;100222.13;5075712;28;20052;-73
2021/06/27 04:25:58;;;;;;;7.53;4.20;;;;;;;28.41;38.87;100229.59;5093467;28;20479;-73
2021/06/27 04:28:28;;;;;;;6.78;3.90;;;;;;;28.23;39.53;100230.16;5094063;28;20051;-73
2021/06/27 04:30:57;;;;;;;6.20;3.70;;;;;;;28.92;38.24;100228.16;5093848;28;20046;-75
2021/06/27 04:33:25;;;;;;;7.45;4.00;;;;;;;28.84;38.38;100234.69;5093959;28;20101;-77
2021/06/27 04:35:55;;;;;;;8.10;4.15;;;;;;;28.23;39.46;100232.06;5093337;28;20040;-75
2021/06/27 04:38:25;;;;;;;8.13;3.90;;;;;;;28.52;38.81;100225.41;5093676;28;20040;-72
2021/06/27 04:40:53;;;;;;;6.93;4.05;;;;;;;29.17;37.25;100236.59;5093267;28;20123;-73
2021/06/27 04:43:21;;;;;;;5.88;3.70;;;;;;;29.59;36.19;100240.75;5093340;28;20062;-73
2021/06/27 04:45:53;;;;;;;6.38;3.75;;;;;;;30.29;35.07;100238.09;5093397;28;20040;-76
2021/06/27 04:48:24;;;;;;;6.78;3.65;;;;;;;30.09;35.47;100233.56;5093600;28;20414;-75
2021/06/27 04:50:52;;;;;;;5.20;3.55;;;;;;;29.83;36.13;100234.53;5093115;28;20150;-76
2021/06/27 04:53:23;;;;;;;5.57;3.55;;;;;;;29.74;35.86;100246.00;5093672;28;20047;-75
2021/06/27 04:55:51;;;;;;;5.53;3.58;;;;;;;30.83;34.38;100240.28;5075448;28;20410;-76
2021/06/27 04:58:20;;;;;;;5.18;3.45;;;;;;;31.18;33.13;100231.50;5093830;28;20044;-74
2021/06/27 05:00:49;;;;;;;5.97;3.72;;;;;;;30.87;33.80;100235.16;5093468;28;20387;-75
2021/06/27 05:03:22;;;;;;;6.68;3.90;;;;;;;31.39;33.30;100233.00;5093611;28;20440;-73
2021/06/27 05:05:50;;;;;;;7.65;3.55;;;;;;;31.07;33.91;100227.56;5093578;28;20081;-73
2021/06/27 05:08:19;;;;;;;6.20;3.60;;;;;;;31.39;33.00;100238.53;5093431;28;20040;-74
2021/06/27 05:10:48;;;;;;;4.95;3.65;;;;;;;31.31;33.14;100234.16;5052897;28;20389;-73
2021/06/27 05:13:17;;;;;;;5.32;3.58;;;;;;;31.39;33.41;100230.25;5052663;28;20037;-73
2021/06/27 05:15:45;;;;;;;5.68;3.65;;;;;;;31.63;32.27;100226.56;5053058;28;20053;-77
2021/06/27 05:18:14;;;;;;;5.43;3.60;;;;;;;31.45;32.85;100227.41;5052712;28;20095;-76
2021/06/27 05:20:42;;;;;;;5.65;3.90;;;;;;;31.93;32.12;100218.34;5052068;28;20056;-76
2021/06/27 05:23:12;;;;;;;6.90;3.80;;;;;;;31.26;33.05;100232.06;5051170;28;20060;-76
2021/06/27 05:25:40;;;;;;;5.32;3.80;;;;;;;31.21;33.62;100225.56;5052768;28;20049;-76
2021/06/27 05:28:11;;;;;;;5.38;3.40;;;;;;;32.10;31.69;100224.06;5052571;28;20384;-76
2021/06/27 05:30:39;;;;;;;6.20;3.60;;;;;;;32.37;31.24;100230.94;5052750;28;20091;-73
2021/06/27 05:33:09;;;;;;;5.13;3.63;;;;;;;32.73;30.61;100223.56;5052682;28;20439;-76
2021/06/27 05:35:38;;;;;;;5.55;3.88;;;;;;;32.66;31.43;100233.88;5052705;28;20391;-76
2021/06/27 05:38:06;;;;;;;5.72;3.40;;;;;;;32.13;31.81;100229.13;5051045;28;20048;-75
2021/06/27 05:40:34;;;;;;;5.40;3.47;;;;;;;32.37;31.83;100238.38;5052572;28;20045;-75
2021/06/27 05:43:04;;;;;;;5.85;3.22;;;;;;;32.77;30.51;100230.28;5052035;28;20048;-73
2021/06/27 05:45:33;;;;;;;5.97;3.33;;;;;;;31.97;31.86;100233.38;5052645;28;20045;-73
2021/06/27 05:48:02;;;;;;;6.00;3.33;;;;;;;32.59;31.08;100228.47;5052424;28;20037;-72
2021/06/27 05:50:30;;;;;;;5.72;3.22;;;;;;;33.38;30.23;100231.78;5052711;28;20076;-73
2021/06/27 05:53:00;;;;;;;4.80;3.65;;;;;;;34.13;28.13;100234.50;5052239;28;20107;-80
2021/06/27 05:55:28;;;;;;;4.93;3.22;;;;;;;33.47;30.34;100241.38;5054161;28;20045;-74
2021/06/27 05:57:56;;;;;;;6.95;3.92;;;;;;;32.96;29.67;100239.34;5056552;28;20048;-78
2021/06/27 06:00:25;;;;;;;4.90;3.40;;;;;;;32.71;30.43;100242.28;5056492;28;20044;-75
2021/06/27 06:02:54;;;;;;;4.82;3.30;;;;;;;33.05;29.95;100234.31;5055140;28;20049;-76
2021/06/27 06:05:22;;;;;;;8.70;3.50;;;;;;;33.02;29.70;100244.75;5056931;28;20463;-75
2021/06/27 06:07:52;;;;;;;4.68;3.25;;;;;;;33.01;30.47;100240.31;5056358;28;20048;-80
2021/06/27 06:10:20;;;;;;;5.60;3.25;;;;;;;32.58;31.00;100242.50;5089256;28;20452;-79
2021/06/27 06:12:49;;;;;;;5.15;3.40;;;;;;;31.59;32.06;100239.97;5096770;28;20048;-74
2021/06/27 06:15:17;;;;;;;5.32;3.40;;;;;;;32.25;31.63;100241.06;5096429;28;20121;-74
2021/06/27 06:17:46;;;;;;;5.30;3.50;;;;;;;32.71;30.42;100243.13;5096567;28;20036;-73
2021/06/27 06:20:17;;;;;;;5.40;3.40;;;;;;;32.54;30.69;100242.16;5099309;28;20040;-69
2021/06/27 06:22:45;;;;;;;7.05;3.33;;;;;;;32.30;31.00;100238.47;5078165;28;20044;-70
2021/06/27 06:25:13;;;;;;;4.93;3.25;;;;;;;32.15;31.72;100240.78;5096207;28;20063;-72
2021/06/27 06:27:42;;;;;;;5.32;3.70;;;;;;;32.05;31.48;100244.09;5096260;28;20036;-71
2021/06/27 06:30:11;;;;;;;7.68;3.30;;;;;;;32.57;31.10;100243.59;5096017;28;20440;-72
2021/06/27 06:32:41;;;;;;;6.18;3.42;;;;;;;32.75;30.87;100235.22;5096167;28;20052;-71
2021/06/27 06:35:10;;;;;;;4.72;3.15;;;;;;;32.62;30.76;100235.41;5095748;28;20044;-73
2021/06/27 06:37:40;;;;;;;4.50;3.20;;;;;;;33.36;29.23;100238.66;5096392;28;20040;-70
2021/06/27 06:40:11;;;;;;;5.20;3.35;;;;;;;33.06;30.04;100250.66;5095964;28;20047;-68
2021/06/27 06:42:42;;;;;;;4.78;3.22;;;;;;;33.52;29.39;100260.03;5096162;28;20128;-69
2021/06/27 06:45:10;;;;;;;5.38;3.58;;;;;;;33.64;29.11;100262.78;5077630;28;20048;-70
2021/06/27 06:47:41;;;;;;;4.40;2.88;;;;;;;33.47;28.94;100252.44;5095930;28;20410;-71
2021/06/27 06:50:10;;;;;;;4.03;2.97;;;;;;;33.86;28.98;100255.50;5095590;28;20445;-71
2021/06/27 06:52:41;;;;;;;5.20;2.92;;;;;;;33.07;29.49;100245.97;5077895;28;20130;-69
2021/06/27 06:55:10;;;;;;;5.15;3.00;;;;;;;31.25;32.04;100249.66;5098905;28;20078;-68
2021/06/27 06:57:41;;;;;;;4.30;2.80;;;;;;;31.75;31.62;100249.59;5097376;28;20054;-74
2021/06/27 07:00:11;;;;;;;4.20;2.85;;;;;;;32.06;31.44;100243.03;5077582;28;20056;-74
2021/06/27 07:02:40;;;;;;;5.10;3.03;;;;;;;31.47;31.62;100247.34;5096102;28;20044;-73
2021/06/27 07:05:12;;;;;;;4.30;3.10;;;;;;;30.94;33.06;100245.06;5095728;28;20097;-73
2021/06/27 07:07:44;;;;;;;5.65;3.20;;;;;;;31.25;32.96;100248.81;5095494;28;20181;-75
2021/06/27 07:10:13;;;;;;;;;;;;;;;31.17;32.62;100246.31;5096036;28;20429;-73
2021/06/27 07:12:42;;;;;;;6.85;2.85;;;;;;;30.71;33.85;100255.88;5095518;28;20377;-71
2021/06/27 07:15:11;;;;;;;6.00;3.35;;;;;;;30.33;33.75;100258.63;5095282;28;20047;-71
2021/06/27 07:17:41;;;;;;;5.53;3.10;;;;;;;30.31;34.32;100255.28;5095595;28;20051;-74
2021/06/27 07:20:13;;;;;;;5.00;3.25;;;;;;;30.13;34.78;100251.34;5094887;28;20339;-74
2021/06/27 07:22:42;;;;;;;4.10;2.95;;;;;;;30.51;33.97;100247.72;5095870;28;20039;-74
2021/06/27 07:25:12;;;;;;;4.13;2.88;;;;;;;30.50;33.95;100251.53;5095044;28;20040;-74
2021/06/27 07:27:40;;;;;;;5.15;2.90;;;;;;;30.64;33.89;100246.78;5095502;28;20047;-74
2021/06/27 07:30:09;;;;;;;4.40;3.08;;;;;;;30.62;33.91;100248.91;5095036;28;20592;-74
2021/06/27 07:32:38;;;;;;;5.43;2.83;;;;;;;30.40;33.33;100249.28;5095370;28;20048;-74
2021/06/27 07:35:09;;;;;;;4.70;2.95;;;;;;;30.75;32.81;100243.31;5095019;28;20395;-75
2021/06/27 07:37:45;;;;;;;4.88;3.15;;;;;;;30.65;33.40;100254.84;5095199;28;20119;-73
2021/06/27 07:40:15;;;;;;;4.60;3.20;;;;;;;30.59;33.16;100249.34;5095268;28;20079;-74
2021/06/27 07:42:44;;;;;;;5.18;3.10;;;;;;;30.23;34.45;100250.03;5095333;28;20044;-74
2021/06/27 07:45:16;;;;;;;5.03;3.10;;;;;;;30.38;34.47;100248.63;5094711;28;20040;-74
2021/06/27 07:47:44;;;;;;;4.68;2.97;;;;;;;30.09;34.59;100243.72;5095020;28;20048;-75
2021/06/27 07:50:13;;;;;;;6.68;3.40;;;;;;;30.26;34.15;100249.56;5076346;28;20048;-74
2021/06/27 07:52:42;;;;;;;6.63;3.42;;;;;;;30.25;33.38;100243.22;5095051;28;20093;-74
2021/06/27 07:55:12;;;;;;;5.97;3.40;;;;;;;30.07;34.17;100243.13;5094830;28;20042;-75
2021/06/27 07:57:41;;;;;;;4.55;3.20;;;;;;;29.48;35.98;100247.75;5094956;28;20439;-74
2021/06/27 08:00:13;;;;;;;4.35;3.03;;;;;;;29.78;34.61;100253.56;5094623;28;20040;-73
2021/06/27 08:02:42;;;;;;;4.50;3.25;;;;;;;29.69;35.33;100257.63;5094567;28;20483;-75
2021/06/27 08:05:11;;;;;;;5.32;3.17;;;;;;;29.47;35.20;100248.78;5094514;28;20118;-74
2021/06/27 08:07:42;;;;;;;8.75;3.25;;;;;;;29.71;35.38;100250.00;5094796;28;20051;-74
2021/06/27 08:10:13;;;;;;;4.47;3.05;;;;;;;29.64;35.28;100252.78;5094091;28;20052;-74
2021/06/27 08:12:42;;;;;;;7.20;3.70;;;;;;;30.04;34.37;100243.53;5094804;28;20040;-74
2021/06/27 08:15:18;;;;;;;5.47;3.38;;;;;;;29.63;35.53;100251.09;5094050;28;20036;-74
2021/06/27 08:17:47;;;;;;;5.38;3.40;;;;;;;29.65;35.35;100242.63;5093882;28;20051;-74
2021/06/27 08:20:16;;;;;;;6.63;3.20;;;;;;;30.14;34.31;100236.53;5094319;28;20040;-75
2021/06/27 08:22:45;;;;;;;4.82;3.30;;;;;;;30.00;34.64;100242.25;5094220;28;20051;-74
2021/06/27 08:25:18;;;;;;;4.60;3.17;;;;;;;30.05;34.58;100240.56;5094085;28;20066;-74
2021/06/27 08:27:47;;;;;;;7.75;3.53;;;;;;;29.98;34.67;100237.00;5094200;28;20044;-74
2021/06/27 08:30:17;;;;;;;4.82;3.20;;;;;;;29.74;35.28;100237.75;5094053;28;20044;-73
2021/06/27 08:32:47;;;;;;;4.90;3.40;;;;;;;29.55;35.45;100239.50;5094358;28;20043;-74
2021/06/27 08:35:17;;;;;;;5.90;3.30;;;;;;;29.50;35.53;100237.38;5094032;28;20044;-74
2021/06/27 08:37:45;;;;;;;5.60;3.72;;;;;;;29.29;36.00;100243.97;5093831;28;20089;-74
2021/06/27 08:40:15;;;;;;;5.82;3.92;;;;;;;29.21;36.58;100244.19;5093728;28;20098;-75
2021/06/27 08:42:46;;;;;;;5.60;3.55;;;;;;;29.42;35.49;100242.25;5094310;28;20536;-74
2021/06/27 08:45:17;;;;;;;4.72;3.60;;;;;;;28.97;36.01;100240.22;5093846;28;20036;-74
2021/06/27 08:47:47;;;;;;;4.78;3.85;;;;;;;28.83;36.77;100249.47;5093415;28;20413;-74
2021/06/27 08:50:17;;;;;;;5.65;4.22;;;;;;;28.54;37.15;100244.38;5093560;28;20048;-74
2021/06/27 08:52:46;;;;;;;5.78;4.05;;;;;;;28.71;36.92;100245.69;5093613;28;20127;-74
2021/06/27 08:55:15;;;;;;;5.75;4.00;;;;;;;28.55;37.52;100240.59;5093654;28;20444;-75
2021/06/27 08:57:48;;;;;;;5.07;4.00;;;;;;;28.78;36.92;100230.06;5094140;28;20115;-75
2021/06/27 09:00:16;;;;;;;5.65;4.20;;;;;;;28.82;37.01;100234.06;5093465;28;20487;-73
2021/06/27 09:02:45;;;;;;;5.25;3.90;;;;;;;28.85;37.10;100233.63;5093549;28;20036;-74
2021/06/27 09:05:15;;;;;;;4.60;3.70;;;;;;;29.06;37.08;100235.34;5093439;28;20117;-72
2021/06/27 09:07:44;;;;;;;5.80;4.05;;;;;;;29.05;36.59;100234.50;5093601;28;20547;-74
2021/06/27 09:10:25;;;;;;;5.35;3.95;;;;;;;28.90;36.52;100231.13;5093269;28;20040;-74
2021/06/27 09:12:55;;;;;;;4.95;4.00;;;;;;;28.86;36.89;100232.59;5093652;28;20036;-74
2021/06/27 09:15:38;;;;;;;5.88;3.92;;;;;;;28.91;36.97;100230.06;5093154;28;20482;-74
2021/06/27 09:18:09;;;;;;;7.00;4.00;;;;;;;29.15;36.01;100230.50;5075290;28;20046;-74
2021/06/27 09:20:39;;;;;;;5.68;3.83;;;;;;;29.26;35.98;100235.31;5093595;28;20054;-74
2021/06/27 09:23:09;;;;;;;5.18;3.92;;;;;;;29.33;36.18;100231.47;5092996;28;20452;-79
2021/06/27 09:25:40;;;;;;;6.95;4.30;;;;;;;29.05;36.15;100229.03;5093310;28;20046;-74
2021/06/27 09:28:13;;;;;;;5.53;4.22;;;;;;;28.55;36.82;100233.19;5092886;28;20563;-75
2021/06/27 09:30:47;;;;;;;6.80;4.47;;;;;;;28.90;36.91;100228.38;5092423;28;20048;-73
2021/06/27 09:33:17;;;;;;;6.90;4.20;;;;;;;28.95;37.55;100234.09;5093128;28;20383;-74
2021/06/27 09:35:49;;;;;;;4.85;3.92;;;;;;;29.13;36.59;100229.84;5093377;28;20044;-74
2021/06/27 09:38:19;;;;;;;6.22;4.13;;;;;;;29.39;35.79;100224.28;5092998;28;20048;-74
2021/06/27 09:40:49;;;;;;;4.68;3.95;;;;;;;29.61;35.68;100222.97;5093410;28;20043;-74
2021/06/27 09:43:20;;;;;;;7.22;4.22;;;;;;;29.79;35.69;100232.44;5092746;28;20050;-74
2021/06/27 09:45:50;;;;;;;7.07;4.25;;;;;;;30.02;35.17;100221.75;5093230;28;20040;-74
2021/06/27 09:48:19;;;;;;;5.78;4.20;;;;;;;30.28;34.65;100219.91;5092689;28;20040;-73
2021/06/27 09:50:47;;;;;;;5.72;3.80;;;;;;;30.36;34.22;100217.75;5092872;28;20063;-74
2021/06/27 09:53:37;;;;;;;6.10;4.10;;;;;;;30.31;34.02;100225.84;5092667;28;20141;-74
2021/06/27 09:56:08;;;;;;;6.38;3.92;;;;;;;30.17;35.02;100218.72;5093076;28;20040;-74
2021/06/27 09:58:39;;;;;;;6.35;4.47;;;;;;;30.07;34.50;100219.19;5092903;28;20044;-74
2021/06/27 10:01:21;;;;;;;6.30;4.82;;;;;;;30.13;34.81;100209.25;5093187;28;20492;-74
2021/06/27 10:03:54;;;;;;;6.93;4.18;;;;;;;30.31;34.74;100209.34;5074840;28;20055;-74
2021/06/27 10:06:23;;;;;;;;;;;;;;;30.55;34.20;100210.41;5092938;28;20474;-74
2021/06/27 10:08:52;;;;;;;6.20;4.05;;;;;;;30.71;34.08;100209.91;5092976;28;19927;-74
2021/06/27 10:11:24;;;;;;;8.40;4.50;;;;;;;30.68;33.70;100202.06;5092601;28;20540;-74
2021/06/27 10:13:55;;;;;;;5.70;4.07;;;;;;;30.85;33.98;100205.09;5092672;28;20044;-74
2021/06/27 10:16:32;;;;;;;5.80;4.38;;;;;;;30.95;33.62;100199.94;5092682;28;20124;-74
2021/06/27 10:19:01;;;;;;;5.95;4.60;;;;;;;30.53;33.84;100204.28;5092619;28;20043;-74
2021/06/27 10:21:31;;;;;;;6.80;4.43;;;;;;;30.47;33.67;100199.69;5092462;28;20048;-74
2021/06/27 10:23:59;;;;;;;5.85;4.40;;;;;;;29.96;34.44;100200.63;5092856;28;20555;-74
2021/06/27 10:26:30;;;;;;;7.55;4.70;;;;;;;29.83;34.40;100197.97;5092292;28;20060;-74
2021/06/27 10:29:00;;;;;;;6.43;4.95;;;;;;;29.63;35.07;100193.41;5092867;28;20491;-74
2021/06/27 10:31:28;;;;;;;6.38;4.15;;;;;;;29.16;35.78;100193.72;5092412;28;20063;-74
2021/06/27 10:33:57;;;;;;;7.32;4.75;;;;;;;28.89;36.01;100199.25;5092468;28;20508;-74
2021/06/27 10:36:34;;;;;;;5.80;4.35;;;;;;;29.08;35.72;100201.13;5092207;28;20114;-74
2021/06/27 10:39:08;;;;;;;7.00;4.53;;;;;;;29.04;35.95;100180.63;5092915;28;20051;-74
2021/06/27 10:41:51;;;;;;;6.30;4.15;;;;;;;29.38;35.19;100181.41;5076217;28;20105;-74
2021/06/27 10:44:21;;;;;;;6.05;4.68;;;;;;;29.57;34.79;100183.25;5096094;28;20040;-74
2021/06/27 10:46:51;;;;;;;5.97;4.43;;;;;;;30.04;34.79;100175.63;5096198;28;20040;-74
2021/06/27 10:49:50;;;;;;;7.15;4.50;;;;;;;30.24;33.37;100183.78;5095749;28;20051;-74
2021/06/27 10:52:19;;;;;;;5.43;4.10;;;;;;;30.46;32.31;100187.81;5095979;28;20044;-74
2021/06/27 10:55:17;;;;;;;8.32;4.50;;;;;;;30.42;32.71;100172.84;5096029;28;20079;-74
2021/06/27 10:58:05;;;;;;;7.60;4.35;;;;;;;30.52;33.25;100177.84;5096124;28;20054;-74
2021/06/27 11:01:05;;;;;;;4.93;4.20;;;;;;;30.99;32.06;100172.78;5095790;28;20051;-74
2021/06/27 11:03:35;;;;;;;5.25;3.88;;;;;;;31.13;31.17;100168.81;5095677;28;20068;-74
2021/06/27 11:06:06;;;;;;;6.63;4.13;;;;;;;31.38;30.43;100166.03;5096129;28;20116;-74
2021/06/27 11:08:41;;;;;;;5.90;4.50;;;;;;;31.30;30.74;100174.59;5095475;28;20097;-73
2021/06/27 11:11:14;;;;;;;6.20;4.15;;;;;;;31.57;30.23;100172.38;5095854;28;20067;-74
2021/06/27 11:13:44;;;;;;;6.50;4.13;;;;;;;31.40;30.51;100174.06;5095807;28;20105;-74
2021/06/27 11:16:19;;;;;;;6.43;4.05;;;;;;;31.37;31.14;100169.03;5095514;28;20105;-74
2021/06/27 11:18:50;;;;;;;5.50;3.90;;;;;;;31.55;30.80;100174.50;5095706;28;20044;-74
2021/06/27 11:21:22;;;;;;;5.50;4.07;;;;;;;31.49;31.11;100167.16;5076971;28;20044;-74
2021/06/27 11:24:06;;;;;;;5.60;3.97;;;;;;;31.64;29.98;100162.06;5095648;28;20055;-74
2021/06/27 11:26:55;;;;;;;5.35;3.90;;;;;;;31.96;28.80;100165.50;5094976;28;20292;-75
2021/06/27 11:29:42;;;;;;;6.60;4.20;;;;;;;32.12;28.64;100166.75;5095494;28;20185;-75
2021/06/27 11:32:56;;;;;;;4.78;3.47;;;;;;;32.23;28.25;100163.16;5095417;28;20066;-74
2021/06/27 11:35:51;;;;;;;5.95;4.10;;;;;;;32.18;28.73;100165.81;5095069;28;20050;-74
2021/06/27 11:38:41;;;;;;;4.82;4.10;;;;;;;31.89;28.68;100145.44;5095219;28;20068;-74
2021/06/27 11:41:12;;;;;;;5.15;3.90;;;;;;;32.18;29.12;100154.78;5095148;28;20517;-75
2021/06/27 11:43:55;;;;;;;5.85;4.00;;;;;;;32.24;28.25;100153.84;5094959;28;20487;-75